»·PEaware :: N228Q KMFR-KOTH

N228Q :: KMFR-KOTH

FLIGHT INFORMATION

Flight Status: Arrived
Operator: Privately registered:
United States
More flights under this callsign
Pilot: Alan J. (5709)
Aircraft: BEECH AIRCRAFT BONANZA
(BE35)
More flights by this aircraft type
Origin: KMFR Rogue Valley Intl-Medford
United States
Destination: KOTH North Bend Mun
United States
More flights between these airports :: More routes between these airports
Route: +JKSN1 OED V448 RBG V121 OTH
File this flight plan on PilotEdge
Remarks: Western Coverage Only
Altitude:
(Current/Filed)
8,000ft
Speed:
(Current/Filed)
170kts
Departed: 08-Jan-19 01:27 PM
Arrived: 08-Jan-19 02:18 PM
Distance/Time
Traveled:
87nm/0:51
Distance/Time
To Go:
Arrived

Flight Plot

Page will automatically refresh every two minutes.

Flight plan parsing failed; only flown route is shown


Map Options




Map Legend


Flown Route
Filed Route
Departure Airport
Arrival Airport
Navaid (VOR, NDB)
Fix

Horizontal Profiles

Position Reports

Time Latitude Longitude Heading Altitude Ground
Speed
08-Jan-19 13:13 42.375927 -122.880482 339 1338ft 0kts
08-Jan-19 13:14 42.375929 -122.880483 339 1338ft 0kts
08-Jan-19 13:15 42.375932 -122.880484 339 1338ft 0kts
08-Jan-19 13:17 42.375934 -122.880486 339 1338ft 0kts
08-Jan-19 13:18 42.375937 -122.880487 339 1338ft 0kts
08-Jan-19 13:18 42.375941 -122.880489 339 1338ft 0kts
08-Jan-19 13:20 42.375905 -122.879027 68 1338ft 6kts
08-Jan-19 13:21 42.376862 -122.875991 25 1338ft 9kts
08-Jan-19 13:21 42.379968 -122.877493 338 1338ft 18kts
08-Jan-19 13:22 42.385206 -122.880220 344 1338ft 15kts
08-Jan-19 13:23 42.385537 -122.879801 94 1338ft 0kts
08-Jan-19 13:24 42.385537 -122.879799 94 1338ft 0kts
08-Jan-19 13:25 42.385478 -122.878791 156 1338ft 1kts
08-Jan-19 13:26 42.369053 -122.870729 161 1692ft 89kts
08-Jan-19 13:27 42.353948 -122.890217 288 2551ft 100kts
08-Jan-19 13:28 42.375704 -122.909184 338 3491ft 96kts
08-Jan-19 13:29 42.400977 -122.924295 338 4289ft 102kts
08-Jan-19 13:30 42.428222 -122.930301 21 5104ft 100kts
08-Jan-19 13:31 42.456039 -122.923130 344 5808ft 103kts
08-Jan-19 13:32 42.485313 -122.929973 353 6371ft 109kts
08-Jan-19 13:33 42.517814 -122.934771 353 6873ft 126kts
08-Jan-19 13:34 42.550814 -122.954166 332 7496ft 132kts
08-Jan-19 13:35 42.585844 -122.974100 330 7989ft 148kts
08-Jan-19 13:36 42.629291 -122.999776 333 8006ft 185kts
08-Jan-19 13:37 42.677893 -123.027889 332 8005ft 192kts
08-Jan-19 13:38 42.727245 -123.056539 332 8005ft 194kts
08-Jan-19 13:39 42.777041 -123.085381 332 8016ft 194kts
08-Jan-19 13:40 42.826709 -123.114259 332 8011ft 194kts
08-Jan-19 13:41 42.876527 -123.143295 328 8010ft 193kts
08-Jan-19 13:42 42.923348 -123.178912 314 8013ft 189kts
08-Jan-19 13:43 42.967971 -123.218179 325 8005ft 194kts
08-Jan-19 13:44 43.016028 -123.252454 328 7990ft 195kts
08-Jan-19 13:45 43.065198 -123.283667 329 8003ft 195kts
08-Jan-19 13:46 43.114596 -123.314837 329 8005ft 195kts
08-Jan-19 13:47 43.166268 -123.340152 333 7996ft 197kts
08-Jan-19 13:48 43.192873 -123.389985 265 7998ft 161kts
08-Jan-19 13:49 43.216970 -123.447496 285 7996ft 175kts
08-Jan-19 13:50 43.234037 -123.507253 279 7993ft 172kts
08-Jan-19 13:51 43.253987 -123.566769 280 7993ft 172kts
08-Jan-19 13:52 43.273977 -123.626515 279 7982ft 172kts
08-Jan-19 13:53 43.293828 -123.685936 279 7977ft 171kts
08-Jan-19 13:54 43.313747 -123.745263 279 7976ft 170kts
08-Jan-19 13:55 43.327315 -123.804292 267 7973ft 161kts
08-Jan-19 13:56 43.340249 -123.864070 271 7975ft 164kts
08-Jan-19 13:57 43.354967 -123.923873 272 7972ft 165kts
08-Jan-19 13:58 43.369776 -123.983395 272 7967ft 164kts
08-Jan-19 13:59 43.384663 -124.042684 270 7966ft 162kts
08-Jan-19 14:00 43.399151 -124.101736 269 7959ft 162kts
08-Jan-19 14:01 43.413156 -124.160460 268 7959ft 160kts
08-Jan-19 14:02 43.416924 -124.213243 247 7757ft 129kts
08-Jan-19 14:03 43.411697 -124.200140 50 7293ft 186kts
08-Jan-19 14:04 43.422934 -124.146073 117 6819ft 141kts
08-Jan-19 14:05 43.415099 -124.093894 97 6309ft 156kts
08-Jan-19 14:06 43.416768 -124.036479 104 5653ft 147kts
08-Jan-19 14:07 43.404047 -123.992693 134 4760ft 114kts
08-Jan-19 14:08 43.395275 -123.956542 33 3841ft 138kts
08-Jan-19 14:09 43.410037 -123.993579 265 3093ft 136kts
08-Jan-19 14:10 43.411584 -124.045882 264 2484ft 134kts
08-Jan-19 14:11 43.413138 -124.092108 262 2464ft 106kts
08-Jan-19 14:12 43.415449 -124.132943 266 2302ft 108kts
08-Jan-19 14:13 43.414931 -124.167299 268 2078ft 114kts
08-Jan-19 14:14 43.433579 -124.200203 329 1581ft 112kts
08-Jan-19 14:15 43.444394 -124.234756 243 680ft 94kts
08-Jan-19 14:16 43.429228 -124.252784 165 292ft 72kts
08-Jan-19 14:17 43.413363 -124.241069 149 20ft 29kts
08-Jan-19 14:18 43.411285 -124.240745 233 20ft 0kts
08-Jan-19 14:19 43.411935 -124.241496 328 20ft 0kts
08-Jan-19 14:20 43.413116 -124.242555 288 20ft 9kts
08-Jan-19 14:21 43.412813 -124.243408 233 20ft 0kts
08-Jan-19 14:22 43.412811 -124.243410 233 20ft 0kts
08-Jan-19 14:23 43.412811 -124.243412 233 20ft 0kts

Navigation Log

Ident Type
Flight plan parsing failed, navigation log unavailable